sensor_id;sensor_type;location;lat;lon;timestamp;P1;durP1;ratioP1;P2;durP2;ratioP2
6689;SDS011;3382;51.576;8.076;2023-04-24T00:00:53;0.77;;;0.77;;
6689;SDS011;3382;51.576;8.076;2023-04-24T00:03:21;1.87;;;0.80;;
6689;SDS011;3382;51.576;8.076;2023-04-24T00:05:48;1.47;;;0.73;;
6689;SDS011;3382;51.576;8.076;2023-04-24T00:08:13;0.80;;;0.80;;
6689;SDS011;3382;51.576;8.076;2023-04-24T00:10:39;0.77;;;0.77;;
6689;SDS011;3382;51.576;8.076;2023-04-24T00:13:05;0.77;;;0.77;;
6689;SDS011;3382;51.576;8.076;2023-04-24T00:15:31;0.70;;;0.70;;
6689;SDS011;3382;51.576;8.076;2023-04-24T00:17:57;0.80;;;0.80;;
6689;SDS011;3382;51.576;8.076;2023-04-24T00:20:22;0.57;;;0.57;;
6689;SDS011;3382;51.576;8.076;2023-04-24T00:22:48;0.80;;;0.80;;
6689;SDS011;3382;51.576;8.076;2023-04-24T00:25:14;0.60;;;0.60;;
6689;SDS011;3382;51.576;8.076;2023-04-24T00:27:40;0.70;;;0.70;;
6689;SDS011;3382;51.576;8.076;2023-04-24T00:30:05;0.70;;;0.70;;
6689;SDS011;3382;51.576;8.076;2023-04-24T00:32:31;0.70;;;0.70;;
6689;SDS011;3382;51.576;8.076;2023-04-24T00:34:57;0.70;;;0.70;;
6689;SDS011;3382;51.576;8.076;2023-04-24T00:37:22;0.67;;;0.67;;
6689;SDS011;3382;51.576;8.076;2023-04-24T00:39:48;0.60;;;0.60;;
6689;SDS011;3382;51.576;8.076;2023-04-24T00:42:14;0.83;;;0.70;;
6689;SDS011;3382;51.576;8.076;2023-04-24T00:44:39;0.80;;;0.80;;
6689;SDS011;3382;51.576;8.076;2023-04-24T00:47:05;1.60;;;0.90;;
6689;SDS011;3382;51.576;8.076;2023-04-24T00:49:32;1.10;;;1.00;;
6689;SDS011;3382;51.576;8.076;2023-04-24T00:51:57;1.23;;;0.70;;
6689;SDS011;3382;51.576;8.076;2023-04-24T00:54:24;1.17;;;0.80;;
6689;SDS011;3382;51.576;8.076;2023-04-24T00:56:50;0.80;;;0.80;;
6689;SDS011;3382;51.576;8.076;2023-04-24T00:59:16;0.80;;;0.80;;
6689;SDS011;3382;51.576;8.076;2023-04-24T01:01:43;0.80;;;0.80;;
6689;SDS011;3382;51.576;8.076;2023-04-24T01:04:09;1.03;;;1.00;;
6689;SDS011;3382;51.576;8.076;2023-04-24T01:06:37;1.07;;;0.80;;
6689;SDS011;3382;51.576;8.076;2023-04-24T01:09:04;2.00;;;0.90;;
6689;SDS011;3382;51.576;8.076;2023-04-24T01:11:30;1.83;;;0.87;;
6689;SDS011;3382;51.576;8.076;2023-04-24T01:13:56;2.70;;;0.90;;
6689;SDS011;3382;51.576;8.076;2023-04-24T01:16:22;4.57;;;1.00;;
6689;SDS011;3382;51.576;8.076;2023-04-24T01:18:48;1.67;;;0.80;;
6689;SDS011;3382;51.576;8.076;2023-04-24T01:21:14;1.03;;;0.70;;
6689;SDS011;3382;51.576;8.076;2023-04-24T01:23:43;0.87;;;0.80;;
6689;SDS011;3382;51.576;8.076;2023-04-24T01:26:10;0.70;;;0.70;;
6689;SDS011;3382;51.576;8.076;2023-04-24T01:28:36;0.77;;;0.70;;
6689;SDS011;3382;51.576;8.076;2023-04-24T01:31:02;2.47;;;0.80;;
6689;SDS011;3382;51.576;8.076;2023-04-24T01:33:28;0.70;;;0.57;;
6689;SDS011;3382;51.576;8.076;2023-04-24T01:35:53;0.93;;;0.90;;
6689;SDS011;3382;51.576;8.076;2023-04-24T01:38:19;0.80;;;0.80;;
6689;SDS011;3382;51.576;8.076;2023-04-24T01:40:45;1.87;;;0.80;;
6689;SDS011;3382;51.576;8.076;2023-04-24T01:43:12;0.77;;;0.77;;
6689;SDS011;3382;51.576;8.076;2023-04-24T01:45:37;2.37;;;0.90;;
6689;SDS011;3382;51.576;8.076;2023-04-24T01:48:03;0.70;;;0.70;;
6689;SDS011;3382;51.576;8.076;2023-04-24T01:50:29;0.80;;;0.80;;
6689;SDS011;3382;51.576;8.076;2023-04-24T01:52:55;0.70;;;0.70;;
6689;SDS011;3382;51.576;8.076;2023-04-24T01:55:21;0.90;;;0.90;;
6689;SDS011;3382;51.576;8.076;2023-04-24T01:57:47;2.60;;;1.00;;
6689;SDS011;3382;51.576;8.076;2023-04-24T02:00:12;1.00;;;1.00;;
6689;SDS011;3382;51.576;8.076;2023-04-24T02:02:39;0.90;;;0.80;;
6689;SDS011;3382;51.576;8.076;2023-04-24T02:05:06;1.83;;;1.00;;
6689;SDS011;3382;51.576;8.076;2023-04-24T02:07:32;1.27;;;0.80;;
6689;SDS011;3382;51.576;8.076;2023-04-24T02:09:58;0.80;;;0.80;;
6689;SDS011;3382;51.576;8.076;2023-04-24T02:12:24;1.83;;;0.90;;
6689;SDS011;3382;51.576;8.076;2023-04-24T02:14:49;0.90;;;0.90;;
6689;SDS011;3382;51.576;8.076;2023-04-24T02:17:15;0.80;;;0.80;;
6689;SDS011;3382;51.576;8.076;2023-04-24T02:19:41;1.93;;;0.90;;
6689;SDS011;3382;51.576;8.076;2023-04-24T02:22:07;1.20;;;1.03;;
6689;SDS011;3382;51.576;8.076;2023-04-24T02:24:33;2.30;;;1.00;;
6689;SDS011;3382;51.576;8.076;2023-04-24T02:26:58;0.77;;;0.77;;
6689;SDS011;3382;51.576;8.076;2023-04-24T02:29:25;1.30;;;0.93;;
6689;SDS011;3382;51.576;8.076;2023-04-24T02:31:50;1.30;;;1.20;;
6689;SDS011;3382;51.576;8.076;2023-04-24T02:34:16;1.53;;;1.10;;
6689;SDS011;3382;51.576;8.076;2023-04-24T02:36:41;2.10;;;1.33;;
6689;SDS011;3382;51.576;8.076;2023-04-24T02:39:07;2.70;;;1.27;;
6689;SDS011;3382;51.576;8.076;2023-04-24T02:41:33;1.30;;;1.20;;
6689;SDS011;3382;51.576;8.076;2023-04-24T02:43:58;2.63;;;1.50;;
6689;SDS011;3382;51.576;8.076;2023-04-24T02:46:24;2.00;;;1.53;;
6689;SDS011;3382;51.576;8.076;2023-04-24T02:48:50;2.50;;;1.70;;
6689;SDS011;3382;51.576;8.076;2023-04-24T02:51:16;1.87;;;1.47;;
6689;SDS011;3382;51.576;8.076;2023-04-24T02:53:41;1.97;;;1.77;;
6689;SDS011;3382;51.576;8.076;2023-04-24T02:56:07;1.60;;;1.50;;
6689;SDS011;3382;51.576;8.076;2023-04-24T02:58:32;1.77;;;1.50;;
6689;SDS011;3382;51.576;8.076;2023-04-24T03:00:58;1.70;;;1.57;;
6689;SDS011;3382;51.576;8.076;2023-04-24T03:03:25;2.80;;;1.77;;
6689;SDS011;3382;51.576;8.076;2023-04-24T03:05:50;2.00;;;1.80;;
6689;SDS011;3382;51.576;8.076;2023-04-24T03:08:16;2.40;;;1.73;;
6689;SDS011;3382;51.576;8.076;2023-04-24T03:10:42;2.37;;;1.70;;
6689;SDS011;3382;51.576;8.076;2023-04-24T03:13:08;2.17;;;1.80;;
6689;SDS011;3382;51.576;8.076;2023-04-24T03:15:33;1.20;;;1.17;;
6689;SDS011;3382;51.576;8.076;2023-04-24T03:17:59;1.50;;;1.40;;
6689;SDS011;3382;51.576;8.076;2023-04-24T03:20:25;2.97;;;2.40;;
6689;SDS011;3382;51.576;8.076;2023-04-24T03:22:51;1.80;;;1.53;;
6689;SDS011;3382;51.576;8.076;2023-04-24T03:25:17;1.90;;;1.80;;
6689;SDS011;3382;51.576;8.076;2023-04-24T03:27:42;2.40;;;2.00;;
6689;SDS011;3382;51.576;8.076;2023-04-24T03:30:08;2.43;;;1.90;;
6689;SDS011;3382;51.576;8.076;2023-04-24T03:32:34;2.00;;;1.90;;
6689;SDS011;3382;51.576;8.076;2023-04-24T03:35:00;2.10;;;2.00;;
6689;SDS011;3382;51.576;8.076;2023-04-24T03:37:25;2.43;;;1.97;;
6689;SDS011;3382;51.576;8.076;2023-04-24T03:39:51;1.83;;;1.73;;
6689;SDS011;3382;51.576;8.076;2023-04-24T03:42:17;2.43;;;1.90;;
6689;SDS011;3382;51.576;8.076;2023-04-24T03:44:43;2.60;;;1.83;;
6689;SDS011;3382;51.576;8.076;2023-04-24T03:47:08;2.37;;;1.70;;
6689;SDS011;3382;51.576;8.076;2023-04-24T03:49:34;2.17;;;1.97;;
6689;SDS011;3382;51.576;8.076;2023-04-24T03:52:00;1.90;;;1.80;;
6689;SDS011;3382;51.576;8.076;2023-04-24T03:54:25;1.63;;;1.53;;
6689;SDS011;3382;51.576;8.076;2023-04-24T03:56:51;1.67;;;1.30;;
6689;SDS011;3382;51.576;8.076;2023-04-24T03:59:17;3.13;;;1.93;;
6689;SDS011;3382;51.576;8.076;2023-04-24T04:01:42;1.10;;;1.00;;
6689;SDS011;3382;51.576;8.076;2023-04-24T04:04:08;2.30;;;1.77;;
6689;SDS011;3382;51.576;8.076;2023-04-24T04:06:33;1.63;;;1.53;;
6689;SDS011;3382;51.576;8.076;2023-04-24T04:09:01;2.03;;;1.60;;
6689;SDS011;3382;51.576;8.076;2023-04-24T04:11:26;1.80;;;1.33;;
6689;SDS011;3382;51.576;8.076;2023-04-24T04:13:52;1.47;;;1.13;;
6689;SDS011;3382;51.576;8.076;2023-04-24T04:16:17;7.47;;;3.40;;
6689;SDS011;3382;51.576;8.076;2023-04-24T04:18:43;2.67;;;1.30;;
6689;SDS011;3382;51.576;8.076;2023-04-24T04:21:09;1.10;;;1.00;;
6689;SDS011;3382;51.576;8.076;2023-04-24T04:23:35;1.10;;;0.83;;
6689;SDS011;3382;51.576;8.076;2023-04-24T04:26:01;1.73;;;1.47;;
6689;SDS011;3382;51.576;8.076;2023-04-24T04:28:28;1.27;;;0.80;;
6689;SDS011;3382;51.576;8.076;2023-04-24T04:30:55;2.03;;;1.23;;
6689;SDS011;3382;51.576;8.076;2023-04-24T04:33:22;4.70;;;4.13;;
6689;SDS011;3382;51.576;8.076;2023-04-24T04:35:51;4.77;;;4.13;;
6689;SDS011;3382;51.576;8.076;2023-04-24T04:38:20;6.03;;;5.43;;
6689;SDS011;3382;51.576;8.076;2023-04-24T04:40:46;8.37;;;6.57;;
6689;SDS011;3382;51.576;8.076;2023-04-24T04:43:12;7.50;;;6.70;;
6689;SDS011;3382;51.576;8.076;2023-04-24T04:45:41;6.93;;;6.23;;
6689;SDS011;3382;51.576;8.076;2023-04-24T04:48:08;7.07;;;6.30;;
6689;SDS011;3382;51.576;8.076;2023-04-24T04:50:34;7.37;;;6.17;;
6689;SDS011;3382;51.576;8.076;2023-04-24T04:53:00;6.60;;;5.77;;
6689;SDS011;3382;51.576;8.076;2023-04-24T04:55:26;5.03;;;4.50;;
6689;SDS011;3382;51.576;8.076;2023-04-24T04:57:51;8.03;;;6.17;;
6689;SDS011;3382;51.576;8.076;2023-04-24T05:00:17;7.17;;;6.00;;
6689;SDS011;3382;51.576;8.076;2023-04-24T05:02:44;8.70;;;7.17;;
6689;SDS011;3382;51.576;8.076;2023-04-24T05:05:09;4.17;;;3.50;;
6689;SDS011;3382;51.576;8.076;2023-04-24T05:07:35;4.80;;;3.97;;
6689;SDS011;3382;51.576;8.076;2023-04-24T05:10:01;7.50;;;4.30;;
6689;SDS011;3382;51.576;8.076;2023-04-24T05:12:26;5.03;;;4.53;;
6689;SDS011;3382;51.576;8.076;2023-04-24T05:14:52;4.30;;;3.90;;
6689;SDS011;3382;51.576;8.076;2023-04-24T05:17:18;5.90;;;3.57;;
6689;SDS011;3382;51.576;8.076;2023-04-24T05:19:44;6.10;;;4.27;;
6689;SDS011;3382;51.576;8.076;2023-04-24T05:22:09;7.97;;;5.77;;
6689;SDS011;3382;51.576;8.076;2023-04-24T05:24:36;5.40;;;3.77;;
6689;SDS011;3382;51.576;8.076;2023-04-24T05:27:02;5.90;;;4.43;;
6689;SDS011;3382;51.576;8.076;2023-04-24T05:29:29;4.57;;;3.83;;
6689;SDS011;3382;51.576;8.076;2023-04-24T05:31:58;7.77;;;4.03;;
6689;SDS011;3382;51.576;8.076;2023-04-24T05:34:25;7.93;;;3.50;;
6689;SDS011;3382;51.576;8.076;2023-04-24T05:36:50;4.83;;;4.00;;
6689;SDS011;3382;51.576;8.076;2023-04-24T05:39:16;3.97;;;2.83;;
6689;SDS011;3382;51.576;8.076;2023-04-24T05:41:42;4.07;;;3.50;;
6689;SDS011;3382;51.576;8.076;2023-04-24T05:44:08;3.93;;;3.03;;
6689;SDS011;3382;51.576;8.076;2023-04-24T05:46:34;4.77;;;2.93;;
6689;SDS011;3382;51.576;8.076;2023-04-24T05:49:00;5.90;;;4.97;;
6689;SDS011;3382;51.576;8.076;2023-04-24T05:51:25;7.40;;;3.67;;
6689;SDS011;3382;51.576;8.076;2023-04-24T05:53:51;3.90;;;2.77;;
6689;SDS011;3382;51.576;8.076;2023-04-24T05:56:17;6.40;;;5.00;;
6689;SDS011;3382;51.576;8.076;2023-04-24T05:58:43;6.23;;;4.80;;
6689;SDS011;3382;51.576;8.076;2023-04-24T06:01:09;5.13;;;4.63;;
6689;SDS011;3382;51.576;8.076;2023-04-24T06:03:35;7.67;;;4.60;;
6689;SDS011;3382;51.576;8.076;2023-04-24T06:06:01;5.77;;;3.57;;
6689;SDS011;3382;51.576;8.076;2023-04-24T06:08:26;5.67;;;5.00;;
6689;SDS011;3382;51.576;8.076;2023-04-24T06:10:52;7.40;;;5.50;;
6689;SDS011;3382;51.576;8.076;2023-04-24T06:13:17;6.43;;;5.73;;
6689;SDS011;3382;51.576;8.076;2023-04-24T06:15:43;6.23;;;5.60;;
6689;SDS011;3382;51.576;8.076;2023-04-24T06:18:09;5.60;;;5.10;;
6689;SDS011;3382;51.576;8.076;2023-04-24T06:20:37;5.30;;;4.80;;
6689;SDS011;3382;51.576;8.076;2023-04-24T06:23:03;7.33;;;5.60;;
6689;SDS011;3382;51.576;8.076;2023-04-24T06:25:29;6.23;;;4.53;;
6689;SDS011;3382;51.576;8.076;2023-04-24T06:27:55;5.93;;;5.20;;
6689;SDS011;3382;51.576;8.076;2023-04-24T06:30:21;5.00;;;4.47;;
6689;SDS011;3382;51.576;8.076;2023-04-24T06:32:47;4.97;;;4.50;;
6689;SDS011;3382;51.576;8.076;2023-04-24T06:35:13;4.43;;;3.40;;
6689;SDS011;3382;51.576;8.076;2023-04-24T06:37:39;5.47;;;4.17;;
6689;SDS011;3382;51.576;8.076;2023-04-24T06:40:06;4.57;;;4.17;;
6689;SDS011;3382;51.576;8.076;2023-04-24T06:42:32;6.07;;;3.97;;
6689;SDS011;3382;51.576;8.076;2023-04-24T06:44:57;4.33;;;3.93;;
6689;SDS011;3382;51.576;8.076;2023-04-24T06:47:23;4.80;;;4.33;;
6689;SDS011;3382;51.576;8.076;2023-04-24T06:49:49;4.63;;;3.60;;
6689;SDS011;3382;51.576;8.076;2023-04-24T06:52:15;5.40;;;3.70;;
6689;SDS011;3382;51.576;8.076;2023-04-24T06:54:41;5.07;;;4.03;;
6689;SDS011;3382;51.576;8.076;2023-04-24T06:57:08;5.20;;;4.07;;
6689;SDS011;3382;51.576;8.076;2023-04-24T06:59:33;4.67;;;4.17;;
6689;SDS011;3382;51.576;8.076;2023-04-24T07:01:59;4.00;;;3.60;;
6689;SDS011;3382;51.576;8.076;2023-04-24T07:04:25;5.83;;;3.90;;
6689;SDS011;3382;51.576;8.076;2023-04-24T07:06:51;6.53;;;4.23;;
6689;SDS011;3382;51.576;8.076;2023-04-24T07:09:19;5.00;;;4.27;;
6689;SDS011;3382;51.576;8.076;2023-04-24T07:11:45;2.83;;;2.63;;
6689;SDS011;3382;51.576;8.076;2023-04-24T07:14:11;4.40;;;3.80;;
6689;SDS011;3382;51.576;8.076;2023-04-24T07:16:37;4.37;;;3.40;;
6689;SDS011;3382;51.576;8.076;2023-04-24T07:19:02;3.97;;;3.67;;
6689;SDS011;3382;51.576;8.076;2023-04-24T07:21:28;4.23;;;3.30;;
6689;SDS011;3382;51.576;8.076;2023-04-24T07:23:56;4.47;;;2.90;;
6689;SDS011;3382;51.576;8.076;2023-04-24T07:26:21;3.90;;;3.20;;
6689;SDS011;3382;51.576;8.076;2023-04-24T07:28:47;2.70;;;2.40;;
6689;SDS011;3382;51.576;8.076;2023-04-24T07:31:12;3.00;;;2.70;;
6689;SDS011;3382;51.576;8.076;2023-04-24T07:33:38;2.97;;;2.30;;
6689;SDS011;3382;51.576;8.076;2023-04-24T07:36:04;2.50;;;2.00;;
6689;SDS011;3382;51.576;8.076;2023-04-24T07:38:30;2.50;;;2.30;;
6689;SDS011;3382;51.576;8.076;2023-04-24T07:40:56;3.10;;;2.20;;
6689;SDS011;3382;51.576;8.076;2023-04-24T07:43:21;3.13;;;2.57;;
6689;SDS011;3382;51.576;8.076;2023-04-24T07:45:48;4.10;;;2.50;;
6689;SDS011;3382;51.576;8.076;2023-04-24T07:48:14;2.37;;;2.17;;
6689;SDS011;3382;51.576;8.076;2023-04-24T07:50:41;2.53;;;2.23;;
6689;SDS011;3382;51.576;8.076;2023-04-24T07:53:07;2.33;;;2.10;;
6689;SDS011;3382;51.576;8.076;2023-04-24T07:55:33;3.30;;;2.30;;
6689;SDS011;3382;51.576;8.076;2023-04-24T07:57:58;2.00;;;1.80;;
6689;SDS011;3382;51.576;8.076;2023-04-24T08:00:24;2.80;;;2.40;;
6689;SDS011;3382;51.576;8.076;2023-04-24T08:02:49;2.00;;;1.77;;
6689;SDS011;3382;51.576;8.076;2023-04-24T08:05:15;2.40;;;2.20;;
6689;SDS011;3382;51.576;8.076;2023-04-24T08:07:41;3.07;;;2.10;;
6689;SDS011;3382;51.576;8.076;2023-04-24T08:10:09;3.83;;;2.27;;
6689;SDS011;3382;51.576;8.076;2023-04-24T08:12:35;2.23;;;2.03;;
6689;SDS011;3382;51.576;8.076;2023-04-24T08:15:01;2.00;;;1.70;;
6689;SDS011;3382;51.576;8.076;2023-04-24T08:17:26;2.10;;;1.90;;
6689;SDS011;3382;51.576;8.076;2023-04-24T08:19:52;1.80;;;1.70;;
6689;SDS011;3382;51.576;8.076;2023-04-24T08:22:24;6.43;;;2.30;;
6689;SDS011;3382;51.576;8.076;2023-04-24T08:24:49;2.77;;;2.10;;
6689;SDS011;3382;51.576;8.076;2023-04-24T08:27:15;1.80;;;1.70;;
6689;SDS011;3382;51.576;8.076;2023-04-24T08:29:40;3.47;;;1.80;;
6689;SDS011;3382;51.576;8.076;2023-04-24T08:32:06;1.53;;;1.43;;
6689;SDS011;3382;51.576;8.076;2023-04-24T08:34:32;1.60;;;1.50;;
6689;SDS011;3382;51.576;8.076;2023-04-24T08:36:57;1.37;;;1.27;;
6689;SDS011;3382;51.576;8.076;2023-04-24T08:39:23;1.40;;;1.30;;
6689;SDS011;3382;51.576;8.076;2023-04-24T08:41:48;3.77;;;1.47;;
6689;SDS011;3382;51.576;8.076;2023-04-24T08:44:17;1.40;;;1.30;;
6689;SDS011;3382;51.576;8.076;2023-04-24T08:46:44;2.03;;;1.63;;
6689;SDS011;3382;51.576;8.076;2023-04-24T08:49:13;1.47;;;1.10;;
6689;SDS011;3382;51.576;8.076;2023-04-24T08:51:41;1.30;;;1.20;;
6689;SDS011;3382;51.576;8.076;2023-04-24T08:54:07;1.20;;;1.20;;
6689;SDS011;3382;51.576;8.076;2023-04-24T08:56:33;1.43;;;0.90;;
6689;SDS011;3382;51.576;8.076;2023-04-24T08:59:02;0.90;;;0.90;;
6689;SDS011;3382;51.576;8.076;2023-04-24T09:01:29;3.37;;;1.10;;
6689;SDS011;3382;51.576;8.076;2023-04-24T09:03:58;1.23;;;0.97;;
6689;SDS011;3382;51.576;8.076;2023-04-24T09:06:27;0.87;;;0.77;;
6689;SDS011;3382;51.576;8.076;2023-04-24T09:08:53;1.70;;;1.60;;
6689;SDS011;3382;51.576;8.076;2023-04-24T09:11:20;0.90;;;0.90;;
6689;SDS011;3382;51.576;8.076;2023-04-24T09:13:49;0.53;;;0.53;;
6689;SDS011;3382;51.576;8.076;2023-04-24T09:16:14;1.00;;;0.97;;
6689;SDS011;3382;51.576;8.076;2023-04-24T09:18:40;0.60;;;0.60;;
6689;SDS011;3382;51.576;8.076;2023-04-24T09:21:07;0.87;;;0.87;;
6689;SDS011;3382;51.576;8.076;2023-04-24T09:23:34;1.40;;;0.57;;
6689;SDS011;3382;51.576;8.076;2023-04-24T09:26:00;1.33;;;0.90;;
6689;SDS011;3382;51.576;8.076;2023-04-24T09:28:30;0.73;;;0.70;;
6689;SDS011;3382;51.576;8.076;2023-04-24T09:31:12;2.17;;;0.90;;
6689;SDS011;3382;51.576;8.076;2023-04-24T09:33:53;0.60;;;0.60;;
6689;SDS011;3382;51.576;8.076;2023-04-24T09:36:19;0.50;;;0.50;;
6689;SDS011;3382;51.576;8.076;2023-04-24T09:38:58;0.53;;;0.50;;
6689;SDS011;3382;51.576;8.076;2023-04-24T09:41:29;0.70;;;0.70;;
6689;SDS011;3382;51.576;8.076;2023-04-24T09:43:57;0.60;;;0.60;;
6689;SDS011;3382;51.576;8.076;2023-04-24T09:46:37;0.97;;;0.97;;
6689;SDS011;3382;51.576;8.076;2023-04-24T09:49:12;0.80;;;0.80;;
6689;SDS011;3382;51.576;8.076;2023-04-24T09:51:40;0.87;;;0.57;;
6689;SDS011;3382;51.576;8.076;2023-04-24T09:54:19;1.47;;;0.60;;
6689;SDS011;3382;51.576;8.076;2023-04-24T09:56:46;0.63;;;0.43;;
6689;SDS011;3382;51.576;8.076;2023-04-24T09:59:13;0.60;;;0.60;;
6689;SDS011;3382;51.576;8.076;2023-04-24T10:01:40;0.50;;;0.50;;
6689;SDS011;3382;51.576;8.076;2023-04-24T10:04:24;0.50;;;0.50;;
6689;SDS011;3382;51.576;8.076;2023-04-24T10:06:53;0.50;;;0.50;;
6689;SDS011;3382;51.576;8.076;2023-04-24T10:09:21;1.00;;;1.00;;
6689;SDS011;3382;51.576;8.076;2023-04-24T10:11:49;0.60;;;0.60;;
6689;SDS011;3382;51.576;8.076;2023-04-24T10:14:17;0.90;;;0.90;;
6689;SDS011;3382;51.576;8.076;2023-04-24T10:16:44;0.70;;;0.70;;
6689;SDS011;3382;51.576;8.076;2023-04-24T10:19:12;0.63;;;0.63;;
6689;SDS011;3382;51.576;8.076;2023-04-24T10:21:38;0.70;;;0.70;;
6689;SDS011;3382;51.576;8.076;2023-04-24T10:24:07;0.70;;;0.70;;
6689;SDS011;3382;51.576;8.076;2023-04-24T10:26:35;1.80;;;0.70;;
6689;SDS011;3382;51.576;8.076;2023-04-24T10:29:02;0.70;;;0.70;;
6689;SDS011;3382;51.576;8.076;2023-04-24T10:31:30;1.97;;;0.90;;
6689;SDS011;3382;51.576;8.076;2023-04-24T10:33:58;1.30;;;1.20;;
6689;SDS011;3382;51.576;8.076;2023-04-24T10:36:26;1.30;;;1.10;;
6689;SDS011;3382;51.576;8.076;2023-04-24T10:38:54;1.53;;;1.00;;
6689;SDS011;3382;51.576;8.076;2023-04-24T10:41:21;1.43;;;1.10;;
6689;SDS011;3382;51.576;8.076;2023-04-24T10:44:09;1.10;;;1.00;;
6689;SDS011;3382;51.576;8.076;2023-04-24T10:46:37;1.30;;;1.20;;
6689;SDS011;3382;51.576;8.076;2023-04-24T10:49:04;1.43;;;1.20;;
6689;SDS011;3382;51.576;8.076;2023-04-24T10:51:52;1.50;;;1.40;;
6689;SDS011;3382;51.576;8.076;2023-04-24T10:56:47;1.50;;;1.40;;
6689;SDS011;3382;51.576;8.076;2023-04-24T10:59:13;1.53;;;1.20;;
6689;SDS011;3382;51.576;8.076;2023-04-24T11:01:53;1.37;;;1.20;;
6689;SDS011;3382;51.576;8.076;2023-04-24T11:04:30;1.13;;;1.13;;
6689;SDS011;3382;51.576;8.076;2023-04-24T11:06:56;5.23;;;3.77;;
6689;SDS011;3382;51.576;8.076;2023-04-24T11:09:22;1.30;;;1.20;;
6689;SDS011;3382;51.576;8.076;2023-04-24T11:11:53;1.20;;;1.10;;
6689;SDS011;3382;51.576;8.076;2023-04-24T11:17:31;1.30;;;1.20;;
6689;SDS011;3382;51.576;8.076;2023-04-24T11:20:05;0.90;;;0.90;;
6689;SDS011;3382;51.576;8.076;2023-04-24T11:22:32;1.50;;;1.20;;
6689;SDS011;3382;51.576;8.076;2023-04-24T11:25:02;1.00;;;1.00;;
6689;SDS011;3382;51.576;8.076;2023-04-24T11:27:29;1.00;;;1.00;;
6689;SDS011;3382;51.576;8.076;2023-04-24T11:34:55;1.67;;;1.20;;
6689;SDS011;3382;51.576;8.076;2023-04-24T11:40:05;1.90;;;1.60;;
6689;SDS011;3382;51.576;8.076;2023-04-24T11:42:33;2.03;;;1.60;;
6689;SDS011;3382;51.576;8.076;2023-04-24T11:45:00;1.13;;;1.03;;
6689;SDS011;3382;51.576;8.076;2023-04-24T11:47:30;3.30;;;1.20;;
6689;SDS011;3382;51.576;8.076;2023-04-24T11:49:58;1.47;;;1.30;;
6689;SDS011;3382;51.576;8.076;2023-04-24T11:52:24;1.00;;;1.00;;
6689;SDS011;3382;51.576;8.076;2023-04-24T11:54:50;1.30;;;1.20;;
6689;SDS011;3382;51.576;8.076;2023-04-24T11:57:16;1.90;;;1.60;;
6689;SDS011;3382;51.576;8.076;2023-04-24T11:59:46;1.60;;;1.47;;
6689;SDS011;3382;51.576;8.076;2023-04-24T12:04:51;2.57;;;1.63;;
6689;SDS011;3382;51.576;8.076;2023-04-24T12:07:21;1.20;;;1.13;;
6689;SDS011;3382;51.576;8.076;2023-04-24T12:09:49;1.43;;;1.30;;
6689;SDS011;3382;51.576;8.076;2023-04-24T12:12:25;1.70;;;1.43;;
6689;SDS011;3382;51.576;8.076;2023-04-24T12:14:53;1.10;;;1.10;;
6689;SDS011;3382;51.576;8.076;2023-04-24T12:17:27;4.70;;;2.70;;
6689;SDS011;3382;51.576;8.076;2023-04-24T12:20:00;1.80;;;1.70;;
6689;SDS011;3382;51.576;8.076;2023-04-24T12:25:16;1.60;;;1.40;;
6689;SDS011;3382;51.576;8.076;2023-04-24T12:27:43;4.90;;;2.63;;
6689;SDS011;3382;51.576;8.076;2023-04-24T12:30:13;1.63;;;1.53;;
6689;SDS011;3382;51.576;8.076;2023-04-24T12:32:43;1.20;;;1.10;;
6689;SDS011;3382;51.576;8.076;2023-04-24T12:35:11;1.90;;;1.43;;
6689;SDS011;3382;51.576;8.076;2023-04-24T12:37:37;1.47;;;1.30;;
6689;SDS011;3382;51.576;8.076;2023-04-24T12:42:31;1.00;;;1.00;;
6689;SDS011;3382;51.576;8.076;2023-04-24T12:44:58;7.47;;;2.87;;
6689;SDS011;3382;51.576;8.076;2023-04-24T12:47:26;0.90;;;0.90;;
6689;SDS011;3382;51.576;8.076;2023-04-24T12:49:52;6.17;;;2.50;;
6689;SDS011;3382;51.576;8.076;2023-04-24T12:52:20;1.97;;;1.30;;
6689;SDS011;3382;51.576;8.076;2023-04-24T12:54:49;6.07;;;3.13;;
6689;SDS011;3382;51.576;8.076;2023-04-24T12:57:16;3.03;;;1.63;;
6689;SDS011;3382;51.576;8.076;2023-04-24T12:59:43;7.60;;;3.57;;
6689;SDS011;3382;51.576;8.076;2023-04-24T13:02:09;0.90;;;0.90;;
6689;SDS011;3382;51.576;8.076;2023-04-24T13:04:35;1.67;;;1.20;;
6689;SDS011;3382;51.576;8.076;2023-04-24T13:07:01;1.00;;;1.00;;
6689;SDS011;3382;51.576;8.076;2023-04-24T13:09:27;8.37;;;3.10;;
6689;SDS011;3382;51.576;8.076;2023-04-24T13:11:52;1.30;;;1.20;;
6689;SDS011;3382;51.576;8.076;2023-04-24T13:14:18;3.50;;;2.37;;
6689;SDS011;3382;51.576;8.076;2023-04-24T13:16:44;5.53;;;3.97;;
6689;SDS011;3382;51.576;8.076;2023-04-24T13:19:10;5.10;;;2.43;;
6689;SDS011;3382;51.576;8.076;2023-04-24T13:21:35;4.57;;;2.57;;
6689;SDS011;3382;51.576;8.076;2023-04-24T13:24:01;1.50;;;1.30;;
6689;SDS011;3382;51.576;8.076;2023-04-24T13:26:28;1.57;;;1.10;;
6689;SDS011;3382;51.576;8.076;2023-04-24T13:28:54;1.20;;;1.20;;
6689;SDS011;3382;51.576;8.076;2023-04-24T13:31:19;1.50;;;1.20;;
6689;SDS011;3382;51.576;8.076;2023-04-24T13:33:45;1.00;;;1.00;;
6689;SDS011;3382;51.576;8.076;2023-04-24T13:36:10;0.93;;;0.90;;
6689;SDS011;3382;51.576;8.076;2023-04-24T13:38:36;3.30;;;1.87;;
6689;SDS011;3382;51.576;8.076;2023-04-24T13:41:02;2.20;;;1.80;;
6689;SDS011;3382;51.576;8.076;2023-04-24T13:43:27;0.90;;;0.90;;
6689;SDS011;3382;51.576;8.076;2023-04-24T13:45:53;2.77;;;1.97;;
6689;SDS011;3382;51.576;8.076;2023-04-24T13:48:18;1.07;;;1.07;;
6689;SDS011;3382;51.576;8.076;2023-04-24T13:50:44;1.10;;;1.00;;
6689;SDS011;3382;51.576;8.076;2023-04-24T13:53:13;3.00;;;1.67;;
6689;SDS011;3382;51.576;8.076;2023-04-24T13:55:38;0.90;;;0.90;;
6689;SDS011;3382;51.576;8.076;2023-04-24T13:58:04;1.30;;;1.00;;
6689;SDS011;3382;51.576;8.076;2023-04-24T14:00:30;1.50;;;1.30;;
6689;SDS011;3382;51.576;8.076;2023-04-24T14:02:56;0.90;;;0.90;;
6689;SDS011;3382;51.576;8.076;2023-04-24T14:05:21;1.20;;;1.10;;
6689;SDS011;3382;51.576;8.076;2023-04-24T14:07:47;1.53;;;1.00;;
6689;SDS011;3382;51.576;8.076;2023-04-24T14:10:13;2.23;;;1.40;;
6689;SDS011;3382;51.576;8.076;2023-04-24T14:12:38;1.10;;;1.00;;
6689;SDS011;3382;51.576;8.076;2023-04-24T14:15:04;1.80;;;1.13;;
6689;SDS011;3382;51.576;8.076;2023-04-24T14:17:31;1.20;;;1.13;;
6689;SDS011;3382;51.576;8.076;2023-04-24T14:19:56;5.50;;;3.10;;
6689;SDS011;3382;51.576;8.076;2023-04-24T14:22:24;1.73;;;1.13;;
6689;SDS011;3382;51.576;8.076;2023-04-24T14:24:50;1.37;;;1.10;;
6689;SDS011;3382;51.576;8.076;2023-04-24T14:27:17;1.20;;;1.10;;
6689;SDS011;3382;51.576;8.076;2023-04-24T14:29:42;1.50;;;1.20;;
6689;SDS011;3382;51.576;8.076;2023-04-24T14:32:10;3.60;;;2.30;;
6689;SDS011;3382;51.576;8.076;2023-04-24T14:34:35;3.27;;;1.83;;
6689;SDS011;3382;51.576;8.076;2023-04-24T14:37:01;4.87;;;1.70;;
6689;SDS011;3382;51.576;8.076;2023-04-24T14:39:27;6.37;;;1.60;;
6689;SDS011;3382;51.576;8.076;2023-04-24T14:41:53;4.97;;;2.20;;
6689;SDS011;3382;51.576;8.076;2023-04-24T14:44:19;4.03;;;1.63;;
6689;SDS011;3382;51.576;8.076;2023-04-24T14:46:44;1.67;;;1.17;;
6689;SDS011;3382;51.576;8.076;2023-04-24T14:49:10;5.37;;;2.10;;
6689;SDS011;3382;51.576;8.076;2023-04-24T14:51:37;5.23;;;2.20;;
6689;SDS011;3382;51.576;8.076;2023-04-24T14:54:03;2.80;;;1.53;;
6689;SDS011;3382;51.576;8.076;2023-04-24T14:56:29;4.23;;;1.80;;
6689;SDS011;3382;51.576;8.076;2023-04-24T14:58:55;3.77;;;1.63;;
6689;SDS011;3382;51.576;8.076;2023-04-24T15:01:20;2.30;;;1.77;;
6689;SDS011;3382;51.576;8.076;2023-04-24T15:03:46;4.70;;;2.17;;
6689;SDS011;3382;51.576;8.076;2023-04-24T15:06:12;3.17;;;1.50;;
6689;SDS011;3382;51.576;8.076;2023-04-24T15:08:37;2.77;;;1.30;;
6689;SDS011;3382;51.576;8.076;2023-04-24T15:11:03;4.07;;;1.90;;
6689;SDS011;3382;51.576;8.076;2023-04-24T15:13:29;2.63;;;1.47;;
6689;SDS011;3382;51.576;8.076;2023-04-24T15:15:55;1.80;;;1.60;;
6689;SDS011;3382;51.576;8.076;2023-04-24T15:18:20;3.13;;;1.90;;
6689;SDS011;3382;51.576;8.076;2023-04-24T15:20:46;3.13;;;1.87;;
6689;SDS011;3382;51.576;8.076;2023-04-24T15:23:11;10.07;;;4.07;;
6689;SDS011;3382;51.576;8.076;2023-04-24T15:25:37;1.70;;;1.57;;
6689;SDS011;3382;51.576;8.076;2023-04-24T15:28:03;3.50;;;1.60;;
6689;SDS011;3382;51.576;8.076;2023-04-24T15:30:30;4.60;;;2.10;;
6689;SDS011;3382;51.576;8.076;2023-04-24T15:32:56;2.37;;;1.80;;